Darstellungsparameter: Aktuell verwendete Einstellungen:
Skalierung der Graphiken ... ?
xyx+y,   Skalierungsfaktor:      Skalierung: Modus: x, Faktor: 1
Darstellungszeitraum ... ?
Vom - - bis: - -   Zeitraum: 29.11.2021 - 30.11.2021
Min/Max/Avg-Anzeige ... ?
Zeige MMA aktuell
Zeige MMA Monat
Zeige MMA alles
Zeige --A aktuell
Zeige --A Monat
Zeige --A alles
Keine MMA-Anzeige
MMA:
Keine MMA-Graphiken
MMA-Basis: 29.11.2021 - 30.11.2021
Quicknavigation für Darstellung... ?
Tage:      1T, 2T, 3T, 5T -1T -2T -3T -5T +1T +2T +3T +5T
Wochen: 1W, 2W, 3W -1W -2W -3W +1W +2W +3W
Monate: 1M, 3M, 6M -1M -3M -6M +1M +3M +6M
Jahre:    1J, 3J, 5J, 10J -1J -3J -5J -10J +1J +3J +5J +10J
Nutze für die Darstellung ... ?
Originaldaten oder Mittelwerte auf ...
Stundenbasis Tagesbasis Wochenbasis
Monatsbasis Jahresbasis      Datenbasis: Original-Daten
Darstellen als:
Statistik (Auto) Statistik J:M      Darstellung:
Zur Graphik,    zurück zur Übersicht aller Sensoren.
 
Tabellarische Datenbersicht: ?
 
Sensor: Nr:Datum:Temp:Feuchte:Taupunkt:
Aussen-T/F 1 29-11-2021 00:00:00 2.7 C 96 % 2.13 C
2 29-11-2021 00:05:00 2.7 C 96 % 2.13 C
3 29-11-2021 00:10:00 2.7 C 96 % 2.13 C
4 29-11-2021 00:15:00 2.7 C 96 % 2.13 C
5 29-11-2021 00:20:00 2.7 C 96 % 2.13 C
6 29-11-2021 00:25:00 2.7 C 96 % 2.13 C
7 29-11-2021 00:30:00 2.7 C 96 % 2.13 C
8 29-11-2021 00:35:00 2.7 C 96 % 2.13 C
9 29-11-2021 00:40:00 2.7 C 96 % 2.13 C
10 29-11-2021 00:45:00 2.7 C 96 % 2.13 C
11 29-11-2021 00:50:00 2.7 C 96 % 2.13 C
12 29-11-2021 00:55:00 2.6 C 96 % 2.03 C
13 29-11-2021 01:00:00 2.5 C 96 % 1.93 C
14 29-11-2021 01:05:00 2.3 C 95 % 1.58 C
15 29-11-2021 01:10:00 2.2 C 95 % 1.48 C
16 29-11-2021 01:15:00 1.9 C 95 % 1.19 C
17 29-11-2021 01:20:00 1.8 C 95 % 1.09 C
18 29-11-2021 01:25:00 1.8 C 95 % 1.09 C
19 29-11-2021 01:30:00 1.8 C 95 % 1.09 C
20 29-11-2021 01:35:00 1.8 C 96 % 1.23 C
21 29-11-2021 01:40:00 1.8 C 96 % 1.23 C
22 29-11-2021 01:45:00 1.8 C 96 % 1.23 C
23 29-11-2021 01:50:00 1.9 C 96 % 1.33 C
24 29-11-2021 01:55:00 1.9 C 96 % 1.33 C
25 29-11-2021 02:00:00 1.9 C 96 % 1.33 C
Sensor: Nr:Datum:Temp:Feuchte:Taupunkt:
Aussen-T/F 26 29-11-2021 02:05:00 1.9 C 96 % 1.33 C
27 29-11-2021 02:10:00 1.9 C 96 % 1.33 C
28 29-11-2021 02:15:00 1.9 C 96 % 1.33 C
29 29-11-2021 02:20:00 2 C 96 % 1.43 C
30 29-11-2021 02:25:00 2 C 96 % 1.43 C
31 29-11-2021 02:30:00 1.9 C 96 % 1.33 C
32 29-11-2021 02:35:00 1.9 C 96 % 1.33 C
33 29-11-2021 02:40:00 1.8 C 96 % 1.23 C
34 29-11-2021 02:45:00 1.7 C 96 % 1.13 C
35 29-11-2021 02:50:00 1.7 C 96 % 1.13 C
36 29-11-2021 02:55:00 1.7 C 96 % 1.13 C
37 29-11-2021 03:00:00 1.7 C 96 % 1.13 C
38 29-11-2021 03:05:00 1.8 C 96 % 1.23 C
39 29-11-2021 03:10:00 1.8 C 96 % 1.23 C
40 29-11-2021 03:15:00 1.8 C 96 % 1.23 C
41 29-11-2021 03:20:00 1.8 C 96 % 1.23 C
42 29-11-2021 03:25:00 1.8 C 96 % 1.23 C
43 29-11-2021 03:30:00 1.7 C 95 % 0.99 C
44 29-11-2021 03:35:00 1.6 C 95 % 0.89 C
45 29-11-2021 03:40:00 1.4 C 95 % 0.69 C
46 29-11-2021 03:45:00 1.2 C 95 % 0.49 C
47 29-11-2021 03:50:00 1 C 95 % 0.29 C
48 29-11-2021 03:55:00 0.9 C 95 % 0.19 C
49 29-11-2021 04:00:00 0.8 C 95 % 0.09 C
50 29-11-2021 04:05:00 0.8 C 95 % 0.09 C
Sensor: Nr:Datum:Temp:Feuchte:Taupunkt:
Aussen-T/F 51 29-11-2021 04:10:00 0.8 C 95 % 0.09 C
52 29-11-2021 04:15:00 0.8 C 95 % 0.09 C
53 29-11-2021 04:20:00 0.7 C 95 % -0.01 C
54 29-11-2021 04:25:00 0.6 C 95 % -0.11 C
55 29-11-2021 04:30:00 0.6 C 95 % -0.11 C
56 29-11-2021 04:35:00 0.6 C 96 % 0.04 C
57 29-11-2021 04:40:00 0.6 C 96 % 0.04 C
58 29-11-2021 04:45:00 0.6 C 96 % 0.04 C
59 29-11-2021 04:50:00 0.6 C 96 % 0.04 C
60 29-11-2021 04:55:00 0.6 C 96 % 0.04 C
61 29-11-2021 05:00:00 0.6 C 95 % -0.11 C
62 29-11-2021 05:05:00 0.4 C 95 % -0.31 C
63 29-11-2021 05:10:00 0.4 C 95 % -0.31 C
64 29-11-2021 05:15:00 0.3 C 96 % -0.26 C
65 29-11-2021 05:20:00 0.3 C 96 % -0.26 C
66 29-11-2021 05:25:00 0.3 C 96 % -0.26 C
67 29-11-2021 05:30:00 0.4 C 96 % -0.16 C
68 29-11-2021 05:35:00 0.6 C 96 % 0.04 C
69 29-11-2021 05:40:00 0.7 C 96 % 0.14 C
70 29-11-2021 05:45:00 0.7 C 96 % 0.14 C
71 29-11-2021 05:50:00 0.8 C 96 % 0.24 C
72 29-11-2021 05:55:00 0.8 C 96 % 0.24 C
73 29-11-2021 06:00:00 0.8 C 96 % 0.24 C
74 29-11-2021 06:05:00 0.9 C 96 % 0.34 C
75 29-11-2021 06:10:00 0.9 C 96 % 0.34 C
Sensor: Nr:Datum:Temp:Feuchte:Taupunkt:
Aussen-T/F 76 29-11-2021 06:15:00 0.9 C 96 % 0.34 C
77 29-11-2021 06:20:00 0.9 C 96 % 0.34 C
78 29-11-2021 06:25:00 0.9 C 96 % 0.34 C
79 29-11-2021 06:30:00 0.9 C 96 % 0.34 C
80 29-11-2021 06:35:00 0.9 C 96 % 0.34 C
81 29-11-2021 06:40:00 0.8 C 96 % 0.24 C
82 29-11-2021 06:45:00 0.7 C 96 % 0.14 C
83 29-11-2021 06:50:00 0.6 C 96 % 0.04 C
84 29-11-2021 06:55:00 0.4 C 96 % -0.16 C
85 29-11-2021 07:00:00 0.4 C 96 % -0.16 C
86 29-11-2021 07:05:00 0.4 C 96 % -0.16 C
87 29-11-2021 07:10:00 0.4 C 96 % -0.16 C
88 29-11-2021 07:15:00 0.4 C 96 % -0.16 C
89 29-11-2021 07:20:00 0.5 C 96 % -0.06 C
90 29-11-2021 07:25:00 0.6 C 96 % 0.04 C
91 29-11-2021 07:30:00 0.6 C 96 % 0.04 C
92 29-11-2021 07:35:00 0.6 C 96 % 0.04 C
93 29-11-2021 07:40:00 0.6 C 96 % 0.04 C
94 29-11-2021 07:45:00 0.5 C 96 % -0.06 C
95 29-11-2021 07:50:00 0.4 C 96 % -0.16 C
96 29-11-2021 07:55:00 0.4 C 96 % -0.16 C
97 29-11-2021 08:00:00 0.4 C 96 % -0.16 C
98 29-11-2021 08:05:00 0.3 C 96 % -0.26 C
99 29-11-2021 08:10:00 0.3 C 96 % -0.26 C
100 29-11-2021 08:15:00 0.4 C 96 % -0.16 C
Sensor: Nr:Datum:Temp:Feuchte:Taupunkt:
Aussen-T/F 101 29-11-2021 08:20:00 0.5 C 96 % -0.06 C
102 29-11-2021 08:25:00 0.6 C 96 % 0.04 C
103 29-11-2021 08:30:00 0.7 C 96 % 0.14 C
104 29-11-2021 08:35:00 0.7 C 96 % 0.14 C
105 29-11-2021 08:40:00 0.8 C 96 % 0.24 C
106 29-11-2021 08:45:00 0.8 C 96 % 0.24 C
107 29-11-2021 08:50:00 0.9 C 96 % 0.34 C
108 29-11-2021 08:55:00 1 C 96 % 0.44 C
109 29-11-2021 09:00:00 1.1 C 96 % 0.54 C
110 29-11-2021 09:05:00 1.1 C 96 % 0.54 C
111 29-11-2021 09:10:00 1.1 C 96 % 0.54 C
112 29-11-2021 09:15:00 1.2 C 96 % 0.63 C
113 29-11-2021 09:20:00 1.3 C 96 % 0.73 C
114 29-11-2021 09:25:00 1.3 C 96 % 0.73 C
115 29-11-2021 09:30:00 1.4 C 96 % 0.83 C
116 29-11-2021 09:35:00 1.5 C 95 % 0.79 C
117 29-11-2021 09:40:00 1.6 C 95 % 0.89 C
118 29-11-2021 09:45:00 1.6 C 95 % 0.89 C
119 29-11-2021 09:50:00 1.7 C 95 % 0.99 C
120 29-11-2021 09:55:00 1.7 C 95 % 0.99 C
121 29-11-2021 10:00:00 1.7 C 95 % 0.99 C
122 29-11-2021 10:05:00 1.8 C 94 % 0.94 C
123 29-11-2021 10:10:00 1.8 C 94 % 0.94 C
124 29-11-2021 10:15:00 1.9 C 94 % 1.04 C
125 29-11-2021 10:20:00 2 C 94 % 1.14 C
Sensor: Nr:Datum:Temp:Feuchte:Taupunkt:
Aussen-T/F 126 29-11-2021 10:25:00 2.1 C 94 % 1.24 C
127 29-11-2021 10:30:00 2.2 C 93 % 1.19 C
128 29-11-2021 10:35:00 2.2 C 93 % 1.19 C
129 29-11-2021 10:40:00 2.3 C 93 % 1.29 C
130 29-11-2021 10:45:00 2.3 C 92 % 1.14 C
131 29-11-2021 10:50:00 2.4 C 92 % 1.24 C
132 29-11-2021 10:55:00 2.5 C 92 % 1.34 C
133 29-11-2021 11:00:00 2.6 C 92 % 1.43 C
134 29-11-2021 11:05:00 2.6 C 91 % 1.28 C
135 29-11-2021 11:10:00 2.7 C 92 % 1.53 C
136 29-11-2021 11:15:00 2.8 C 91 % 1.48 C
137 29-11-2021 11:20:00 2.9 C 91 % 1.58 C
138 29-11-2021 11:25:00 3.1 C 91 % 1.78 C
139 29-11-2021 11:30:00 3.2 C 90 % 1.72 C
140 29-11-2021 11:35:00 3.3 C 90 % 1.82 C
141 29-11-2021 11:40:00 3.4 C 89 % 1.76 C
142 29-11-2021 11:45:00 3.5 C 89 % 1.86 C
143 29-11-2021 11:50:00 3.7 C 89 % 2.06 C
144 29-11-2021 11:55:00 3.7 C 88 % 1.9 C
145 29-11-2021 12:00:00 3.8 C 88 % 2 C
146 29-11-2021 12:05:00 4 C 87 % 2.04 C
147 29-11-2021 12:10:00 4.2 C 87 % 2.23 C
148 29-11-2021 12:15:00 4.2 C 86 % 2.07 C
149 29-11-2021 12:20:00 4.3 C 86 % 2.17 C
150 29-11-2021 12:25:00 4.3 C 86 % 2.17 C
Sensor: Nr:Datum:Temp:Feuchte:Taupunkt:
Aussen-T/F 151 29-11-2021 12:30:00 4.3 C 85 % 2.01 C
152 29-11-2021 12:35:00 4.3 C 85 % 2.01 C
153 29-11-2021 12:40:00 4.3 C 86 % 2.17 C
154 29-11-2021 12:45:00 4.3 C 85 % 2.01 C
155 29-11-2021 12:50:00 4.3 C 86 % 2.17 C
156 29-11-2021 12:55:00 4.1 C 87 % 2.14 C
157 29-11-2021 13:00:00 3.8 C 88 % 2 C
158 29-11-2021 13:05:00 3.6 C 90 % 2.12 C
159 29-11-2021 13:10:00 3.5 C 91 % 2.17 C
160 29-11-2021 13:15:00 3.5 C 91 % 2.17 C
161 29-11-2021 13:20:00 3.4 C 92 % 2.23 C
162 29-11-2021 13:25:00 3.4 C 92 % 2.23 C
163 29-11-2021 13:30:00 3.4 C 92 % 2.23 C
164 29-11-2021 13:35:00 3.4 C 92 % 2.23 C
165 29-11-2021 13:40:00 3.4 C 93 % 2.38 C
166 29-11-2021 13:45:00 3.3 C 93 % 2.28 C
167 29-11-2021 13:50:00 3.3 C 93 % 2.28 C
168 29-11-2021 13:55:00 3.3 C 93 % 2.28 C
169 29-11-2021 14:00:00 3.3 C 93 % 2.28 C
170 29-11-2021 14:05:00 3.3 C 93 % 2.28 C
171 29-11-2021 14:10:00 3.3 C 93 % 2.28 C
172 29-11-2021 14:15:00 3.3 C 94 % 2.43 C
173 29-11-2021 14:20:00 3.3 C 94 % 2.43 C
174 29-11-2021 14:25:00 3.3 C 94 % 2.43 C
175 29-11-2021 14:30:00 3.3 C 94 % 2.43 C
Sensor: Nr:Datum:Temp:Feuchte:Taupunkt:
Aussen-T/F 176 29-11-2021 14:35:00 3.3 C 94 % 2.43 C
177 29-11-2021 14:40:00 3.3 C 94 % 2.43 C
178 29-11-2021 14:45:00 3.3 C 94 % 2.43 C
179 29-11-2021 14:50:00 3.3 C 94 % 2.43 C
180 29-11-2021 14:55:00 3.4 C 94 % 2.53 C
181 29-11-2021 15:00:00 3.4 C 94 % 2.53 C
182 29-11-2021 15:05:00 3.4 C 94 % 2.53 C
183 29-11-2021 15:10:00 3.4 C 94 % 2.53 C
184 29-11-2021 15:15:00 3.4 C 94 % 2.53 C
185 29-11-2021 15:20:00 3.4 C 94 % 2.53 C
186 29-11-2021 15:25:00 3.4 C 94 % 2.53 C
187 29-11-2021 15:30:00 3.4 C 94 % 2.53 C
188 29-11-2021 15:35:00 3.4 C 94 % 2.53 C
189 29-11-2021 15:40:00 3.4 C 94 % 2.53 C
190 29-11-2021 15:45:00 3.4 C 94 % 2.53 C
191 29-11-2021 15:50:00 3.4 C 94 % 2.53 C
192 29-11-2021 15:55:00 3.4 C 94 % 2.53 C
193 29-11-2021 16:00:00 3.4 C 94 % 2.53 C
194 29-11-2021 16:05:00 3.4 C 94 % 2.53 C
195 29-11-2021 16:10:00 3.4 C 94 % 2.53 C
196 29-11-2021 16:15:00 3.4 C 94 % 2.53 C
197 29-11-2021 16:20:00 3.4 C 94 % 2.53 C
198 29-11-2021 16:25:00 3.4 C 94 % 2.53 C
199 29-11-2021 16:30:00 3.3 C 94 % 2.43 C
200 29-11-2021 16:35:00 3.3 C 94 % 2.43 C
Sensor: Nr:Datum:Temp:Feuchte:Taupunkt:
Aussen-T/F 201 29-11-2021 16:40:00 3.3 C 94 % 2.43 C
202 29-11-2021 16:45:00 3.3 C 94 % 2.43 C
203 29-11-2021 16:50:00 3.3 C 94 % 2.43 C
204 29-11-2021 16:55:00 3.3 C 94 % 2.43 C
205 29-11-2021 17:00:00 3.3 C 94 % 2.43 C
206 29-11-2021 17:05:00 3.3 C 94 % 2.43 C
207 29-11-2021 17:10:00 3.3 C 94 % 2.43 C
208 29-11-2021 17:15:00 3.3 C 94 % 2.43 C
209 29-11-2021 17:20:00 3.3 C 94 % 2.43 C
210 29-11-2021 17:25:00 3.3 C 94 % 2.43 C
211 29-11-2021 17:30:00 3.3 C 94 % 2.43 C
212 29-11-2021 17:35:00 3.3 C 94 % 2.43 C
213 29-11-2021 17:40:00 3.2 C 94 % 2.33 C
214 29-11-2021 17:45:00 3.2 C 94 % 2.33 C
215 29-11-2021 17:50:00 3.3 C 94 % 2.43 C
216 29-11-2021 17:55:00 3.3 C 95 % 2.58 C
217 29-11-2021 18:00:00 3.3 C 95 % 2.58 C
218 29-11-2021 18:05:00 3.3 C 94 % 2.43 C
219 29-11-2021 18:10:00 3.3 C 94 % 2.43 C
220 29-11-2021 18:15:00 3.3 C 94 % 2.43 C
221 29-11-2021 18:20:00 3.3 C 94 % 2.43 C
222 29-11-2021 18:25:00 3.3 C 94 % 2.43 C
223 29-11-2021 18:30:00 3.3 C 94 % 2.43 C
224 29-11-2021 18:35:00 3.3 C 94 % 2.43 C
225 29-11-2021 18:40:00 3.3 C 94 % 2.43 C
Sensor: Nr:Datum:Temp:Feuchte:Taupunkt:
Aussen-T/F 226 29-11-2021 18:45:00 3.3 C 94 % 2.43 C
227 29-11-2021 18:50:00 3.3 C 94 % 2.43 C
228 29-11-2021 18:55:00 3.3 C 94 % 2.43 C
229 29-11-2021 19:00:00 3.3 C 94 % 2.43 C
230 29-11-2021 19:05:00 3.3 C 94 % 2.43 C
231 29-11-2021 19:10:00 3.2 C 94 % 2.33 C
232 29-11-2021 19:15:00 3.2 C 94 % 2.33 C
233 29-11-2021 19:20:00 3.1 C 94 % 2.23 C
234 29-11-2021 19:25:00 3.1 C 94 % 2.23 C
235 29-11-2021 19:30:00 3.1 C 94 % 2.23 C
236 29-11-2021 19:35:00 3.1 C 94 % 2.23 C
237 29-11-2021 19:40:00 3.1 C 94 % 2.23 C
238 29-11-2021 19:45:00 3.1 C 94 % 2.23 C
239 29-11-2021 19:50:00 3.1 C 94 % 2.23 C
240 29-11-2021 19:55:00 3 C 94 % 2.13 C
241 29-11-2021 20:00:00 3 C 94 % 2.13 C
242 29-11-2021 20:05:00 2.9 C 94 % 2.03 C
243 29-11-2021 20:10:00 2.9 C 94 % 2.03 C
244 29-11-2021 20:15:00 2.9 C 94 % 2.03 C
245 29-11-2021 20:20:00 2.9 C 94 % 2.03 C
246 29-11-2021 20:25:00 2.9 C 94 % 2.03 C
247 29-11-2021 20:30:00 2.9 C 94 % 2.03 C
248 29-11-2021 20:35:00 2.9 C 95 % 2.18 C
249 29-11-2021 20:40:00 2.9 C 95 % 2.18 C
250 29-11-2021 20:45:00 2.9 C 95 % 2.18 C
Sensor: Nr:Datum:Temp:Feuchte:Taupunkt:
Aussen-T/F 251 29-11-2021 20:50:00 2.9 C 95 % 2.18 C
252 29-11-2021 20:55:00 3 C 95 % 2.28 C
253 29-11-2021 21:00:00 3.1 C 95 % 2.38 C
254 29-11-2021 21:05:00 3.1 C 95 % 2.38 C
255 29-11-2021 21:10:00 3.2 C 95 % 2.48 C
256 29-11-2021 21:15:00 3.2 C 95 % 2.48 C
257 29-11-2021 21:20:00 3.3 C 94 % 2.43 C
258 29-11-2021 21:25:00 3.3 C 94 % 2.43 C
259 29-11-2021 21:30:00 3.3 C 94 % 2.43 C
260 29-11-2021 21:35:00 3.3 C 94 % 2.43 C
261 29-11-2021 21:40:00 3.3 C 94 % 2.43 C
262 29-11-2021 21:45:00 3.3 C 94 % 2.43 C
263 29-11-2021 21:50:00 3.3 C 95 % 2.58 C
264 29-11-2021 21:55:00 3.3 C 95 % 2.58 C
265 29-11-2021 22:00:00 3.3 C 95 % 2.58 C
266 29-11-2021 22:05:00 3.3 C 95 % 2.58 C
267 29-11-2021 22:10:00 3.3 C 95 % 2.58 C
268 29-11-2021 22:15:00 3.3 C 95 % 2.58 C
269 29-11-2021 22:20:00 3.3 C 95 % 2.58 C
270 29-11-2021 22:25:00 3.3 C 95 % 2.58 C
271 29-11-2021 22:30:00 3.3 C 95 % 2.58 C
272 29-11-2021 22:35:00 3.3 C 95 % 2.58 C
273 29-11-2021 22:40:00 3.3 C 95 % 2.58 C
274 29-11-2021 22:45:00 3.3 C 95 % 2.58 C
275 29-11-2021 22:50:00 3.3 C 95 % 2.58 C
Sensor: Nr:Datum:Temp:Feuchte:Taupunkt:
Aussen-T/F 276 29-11-2021 22:55:00 3.3 C 95 % 2.58 C
277 29-11-2021 23:00:00 3.4 C 95 % 2.68 C
278 29-11-2021 23:05:00 3.4 C 95 % 2.68 C
279 29-11-2021 23:10:00 3.4 C 95 % 2.68 C
280 29-11-2021 23:15:00 3.5 C 95 % 2.78 C
281 29-11-2021 23:20:00 3.5 C 95 % 2.78 C
282 29-11-2021 23:25:00 3.6 C 95 % 2.88 C
283 29-11-2021 23:30:00 3.6 C 94 % 2.73 C
284 29-11-2021 23:35:00 3.6 C 94 % 2.73 C
285 29-11-2021 23:40:00 3.6 C 94 % 2.73 C
286 29-11-2021 23:45:00 3.6 C 94 % 2.73 C
287 29-11-2021 23:50:00 3.7 C 94 % 2.83 C
288 29-11-2021 23:55:00 3.7 C 93 % 2.68 C
289 30-11-2021 00:00:00 3.8 C 92 % 2.62 C
290 30-11-2021 00:05:00 3.9 C 92 % 2.72 C
291 30-11-2021 00:10:00 3.9 C 91 % 2.57 C
292 30-11-2021 00:15:00 3.9 C 91 % 2.57 C
293 30-11-2021 00:20:00 3.9 C 91 % 2.57 C
294 30-11-2021 00:25:00 3.9 C 91 % 2.57 C
295 30-11-2021 00:30:00 3.9 C 91 % 2.57 C
296 30-11-2021 00:35:00 3.9 C 91 % 2.57 C
297 30-11-2021 00:40:00 4 C 90 % 2.51 C
298 30-11-2021 00:45:00 4.1 C 90 % 2.61 C
299 30-11-2021 00:50:00 4.1 C 90 % 2.61 C
300 30-11-2021 00:55:00 4.2 C 89 % 2.55 C
Sensor: Nr:Datum:Temp:Feuchte:Taupunkt:
Aussen-T/F 301 30-11-2021 01:00:00 4.3 C 88 % 2.49 C
302 30-11-2021 01:05:00 4.4 C 88 % 2.59 C
303 30-11-2021 01:10:00 4.4 C 87 % 2.43 C
304 30-11-2021 01:15:00 4.3 C 87 % 2.33 C
305 30-11-2021 01:20:00 4.3 C 87 % 2.33 C
306 30-11-2021 01:25:00 4.3 C 87 % 2.33 C
307 30-11-2021 01:30:00 4.3 C 87 % 2.33 C
308 30-11-2021 01:35:00 4.2 C 87 % 2.23 C
309 30-11-2021 01:40:00 4.1 C 87 % 2.14 C
310 30-11-2021 01:45:00 4.1 C 88 % 2.3 C
311 30-11-2021 01:50:00 4.1 C 88 % 2.3 C
312 30-11-2021 01:55:00 4 C 88 % 2.2 C
313 30-11-2021 02:00:00 4 C 87 % 2.04 C
314 30-11-2021 02:05:00 4 C 87 % 2.04 C
315 30-11-2021 02:10:00 3.9 C 87 % 1.94 C
316 30-11-2021 02:15:00 3.9 C 87 % 1.94 C
317 30-11-2021 02:20:00 3.9 C 87 % 1.94 C
318 30-11-2021 02:25:00 3.9 C 87 % 1.94 C
319 30-11-2021 02:30:00 3.9 C 86 % 1.78 C
320 30-11-2021 02:35:00 3.9 C 86 % 1.78 C
321 30-11-2021 02:40:00 3.9 C 86 % 1.78 C
322 30-11-2021 02:45:00 3.9 C 86 % 1.78 C
323 30-11-2021 02:50:00 3.9 C 85 % 1.61 C
324 30-11-2021 02:55:00 3.9 C 85 % 1.61 C
325 30-11-2021 03:00:00 3.9 C 86 % 1.78 C
Sensor: Nr:Datum:Temp:Feuchte:Taupunkt:
Aussen-T/F 326 30-11-2021 03:05:00 3.9 C 86 % 1.78 C
327 30-11-2021 03:10:00 3.9 C 86 % 1.78 C
328 30-11-2021 03:15:00 3.9 C 86 % 1.78 C
329 30-11-2021 03:20:00 3.9 C 86 % 1.78 C
330 30-11-2021 03:25:00 3.9 C 86 % 1.78 C
331 30-11-2021 03:30:00 3.8 C 86 % 1.68 C
332 30-11-2021 03:35:00 3.9 C 86 % 1.78 C
333 30-11-2021 03:40:00 3.9 C 86 % 1.78 C
334 30-11-2021 03:45:00 3.9 C 86 % 1.78 C
335 30-11-2021 03:50:00 3.9 C 85 % 1.61 C
336 30-11-2021 03:55:00 3.9 C 86 % 1.78 C
337 30-11-2021 04:00:00 3.9 C 86 % 1.78 C
338 30-11-2021 04:05:00 3.9 C 86 % 1.78 C
339 30-11-2021 04:10:00 3.9 C 86 % 1.78 C
340 30-11-2021 04:15:00 3.9 C 86 % 1.78 C
341 30-11-2021 04:20:00 3.8 C 86 % 1.68 C
342 30-11-2021 04:25:00 3.8 C 86 % 1.68 C
343 30-11-2021 04:30:00 3.8 C 86 % 1.68 C
344 30-11-2021 04:35:00 3.8 C 87 % 1.84 C
345 30-11-2021 04:40:00 3.8 C 87 % 1.84 C
346 30-11-2021 04:45:00 3.8 C 87 % 1.84 C
347 30-11-2021 04:50:00 3.8 C 88 % 2 C
348 30-11-2021 04:55:00 3.8 C 88 % 2 C
349 30-11-2021 05:00:00 3.8 C 88 % 2 C
350 30-11-2021 05:05:00 3.8 C 89 % 2.16 C
Sensor: Nr:Datum:Temp:Feuchte:Taupunkt:
Aussen-T/F 351 30-11-2021 05:10:00 3.8 C 89 % 2.16 C
352 30-11-2021 05:15:00 3.8 C 89 % 2.16 C
353 30-11-2021 05:20:00 3.8 C 89 % 2.16 C
354 30-11-2021 05:25:00 3.8 C 90 % 2.31 C
355 30-11-2021 05:30:00 3.8 C 90 % 2.31 C
356 30-11-2021 05:35:00 3.8 C 90 % 2.31 C
357 30-11-2021 05:40:00 3.8 C 90 % 2.31 C
358 30-11-2021 05:45:00 3.8 C 90 % 2.31 C
359 30-11-2021 05:50:00 3.7 C 91 % 2.37 C
360 30-11-2021 05:55:00 3.7 C 91 % 2.37 C
361 30-11-2021 06:00:00 3.6 C 91 % 2.27 C
362 30-11-2021 06:05:00 3.6 C 91 % 2.27 C
363 30-11-2021 06:10:00 3.5 C 92 % 2.33 C
364 30-11-2021 06:15:00 3.4 C 92 % 2.23 C
365 30-11-2021 06:20:00 3.4 C 92 % 2.23 C
366 30-11-2021 06:25:00 3.4 C 92 % 2.23 C
367 30-11-2021 06:30:00 3.4 C 92 % 2.23 C
368 30-11-2021 06:35:00 3.4 C 92 % 2.23 C
369 30-11-2021 06:40:00 3.4 C 92 % 2.23 C
370 30-11-2021 06:45:00 3.4 C 93 % 2.38 C
371 30-11-2021 06:50:00 3.3 C 93 % 2.28 C
372 30-11-2021 06:55:00 3.3 C 93 % 2.28 C
373 30-11-2021 07:00:00 3.3 C 93 % 2.28 C
374 30-11-2021 07:05:00 3.3 C 93 % 2.28 C
375 30-11-2021 07:10:00 3.3 C 93 % 2.28 C
Sensor: Nr:Datum:Temp:Feuchte:Taupunkt:
Aussen-T/F 376 30-11-2021 07:15:00 3.4 C 93 % 2.38 C
377 30-11-2021 07:20:00 3.4 C 93 % 2.38 C
378 30-11-2021 07:25:00 3.5 C 93 % 2.48 C
379 30-11-2021 07:30:00 3.5 C 93 % 2.48 C
380 30-11-2021 07:35:00 3.6 C 92 % 2.42 C
381 30-11-2021 07:40:00 3.6 C 92 % 2.42 C
382 30-11-2021 07:45:00 3.7 C 92 % 2.52 C
383 30-11-2021 07:50:00 3.7 C 92 % 2.52 C
384 30-11-2021 07:55:00 3.8 C 92 % 2.62 C
385 30-11-2021 08:00:00 3.8 C 92 % 2.62 C
386 30-11-2021 08:05:00 3.8 C 92 % 2.62 C
387 30-11-2021 08:10:00 3.9 C 91 % 2.57 C
388 30-11-2021 08:15:00 3.9 C 91 % 2.57 C
389 30-11-2021 08:20:00 4 C 92 % 2.82 C
390 30-11-2021 08:25:00 4.1 C 91 % 2.77 C
391 30-11-2021 08:30:00 4.1 C 91 % 2.77 C
392 30-11-2021 08:35:00 4.2 C 91 % 2.87 C
393 30-11-2021 08:40:00 4.2 C 91 % 2.87 C
394 30-11-2021 08:45:00 4.2 C 91 % 2.87 C
395 30-11-2021 08:50:00 4.2 C 91 % 2.87 C
396 30-11-2021 08:55:00 4.3 C 91 % 2.96 C
397 30-11-2021 09:00:00 4.3 C 91 % 2.96 C
398 30-11-2021 09:05:00 4.3 C 91 % 2.96 C
399 30-11-2021 09:10:00 4.4 C 91 % 3.06 C
400 30-11-2021 09:15:00 4.4 C 91 % 3.06 C
Sensor: Nr:Datum:Temp:Feuchte:Taupunkt:
Aussen-T/F 401 30-11-2021 09:20:00 4.4 C 91 % 3.06 C
402 30-11-2021 09:25:00 4.4 C 91 % 3.06 C
403 30-11-2021 09:30:00 4.4 C 91 % 3.06 C
404 30-11-2021 09:35:00 4.5 C 91 % 3.16 C
405 30-11-2021 09:40:00 4.6 C 91 % 3.26 C
406 30-11-2021 09:45:00 4.6 C 91 % 3.26 C
407 30-11-2021 09:50:00 4.7 C 91 % 3.36 C
408 30-11-2021 09:55:00 4.7 C 91 % 3.36 C
409 30-11-2021 10:00:00 4.8 C 90 % 3.3 C
410 30-11-2021 10:05:00 4.9 C 90 % 3.4 C
411 30-11-2021 10:10:00 4.9 C 90 % 3.4 C
412 30-11-2021 10:15:00 5 C 90 % 3.5 C
413 30-11-2021 10:20:00 5.1 C 90 % 3.6 C
414 30-11-2021 10:25:00 5.1 C 90 % 3.6 C
415 30-11-2021 10:30:00 5.2 C 90 % 3.7 C
416 30-11-2021 10:35:00 5.2 C 90 % 3.7 C
417 30-11-2021 10:40:00 5.3 C 90 % 3.8 C
418 30-11-2021 10:45:00 5.3 C 90 % 3.8 C
419 30-11-2021 10:50:00 5.4 C 90 % 3.89 C
420 30-11-2021 10:55:00 5.4 C 91 % 4.05 C
421 30-11-2021 11:00:00 5.4 C 91 % 4.05 C
422 30-11-2021 11:05:00 5.4 C 92 % 4.21 C
423 30-11-2021 11:10:00 5.4 C 92 % 4.21 C
424 30-11-2021 11:15:00 5.4 C 92 % 4.21 C
425 30-11-2021 11:20:00 5.4 C 92 % 4.21 C
Sensor: Nr:Datum:Temp:Feuchte:Taupunkt:
Aussen-T/F 426 30-11-2021 11:25:00 5.4 C 93 % 4.36 C
427 30-11-2021 11:30:00 5.4 C 93 % 4.36 C
428 30-11-2021 11:35:00 5.4 C 93 % 4.36 C
429 30-11-2021 11:40:00 5.4 C 93 % 4.36 C
430 30-11-2021 11:45:00 5.5 C 93 % 4.46 C
431 30-11-2021 11:50:00 5.5 C 93 % 4.46 C
432 30-11-2021 11:55:00 5.6 C 93 % 4.56 C
433 30-11-2021 12:00:00 5.6 C 93 % 4.56 C
434 30-11-2021 12:05:00 5.6 C 93 % 4.56 C
435 30-11-2021 12:10:00 5.6 C 93 % 4.56 C
436 30-11-2021 12:15:00 5.7 C 93 % 4.66 C
437 30-11-2021 12:20:00 5.7 C 93 % 4.66 C
438 30-11-2021 12:25:00 5.7 C 93 % 4.66 C
439 30-11-2021 12:30:00 5.7 C 93 % 4.66 C
440 30-11-2021 12:35:00 5.8 C 93 % 4.76 C
441 30-11-2021 12:40:00 5.8 C 93 % 4.76 C
442 30-11-2021 12:45:00 5.8 C 93 % 4.76 C
443 30-11-2021 12:50:00 5.9 C 93 % 4.86 C
444 30-11-2021 12:55:00 5.9 C 93 % 4.86 C
445 30-11-2021 13:00:00 5.9 C 93 % 4.86 C
446 30-11-2021 13:05:00 6 C 93 % 4.96 C
447 30-11-2021 13:10:00 6 C 93 % 4.96 C
448 30-11-2021 13:15:00 6.1 C 93 % 5.06 C
449 30-11-2021 13:20:00 6.1 C 93 % 5.06 C
450 30-11-2021 13:25:00 6.2 C 92 % 5 C
Sensor: Nr:Datum:Temp:Feuchte:Taupunkt:
Aussen-T/F 451 30-11-2021 13:30:00 6.2 C 92 % 5 C
452 30-11-2021 13:35:00 6.2 C 92 % 5 C
453 30-11-2021 13:40:00 6.3 C 92 % 5.1 C
454 30-11-2021 13:45:00 6.3 C 92 % 5.1 C
455 30-11-2021 13:50:00 6.3 C 92 % 5.1 C
456 30-11-2021 13:55:00 6.3 C 92 % 5.1 C
457 30-11-2021 14:00:00 6.3 C 93 % 5.25 C
458 30-11-2021 14:05:00 6.3 C 93 % 5.25 C
459 30-11-2021 14:10:00 6.3 C 93 % 5.25 C
460 30-11-2021 14:15:00 6.3 C 93 % 5.25 C
461 30-11-2021 14:20:00 6.3 C 94 % 5.41 C
462 30-11-2021 14:25:00 6.2 C 93 % 5.15 C
463 30-11-2021 14:30:00 6.2 C 94 % 5.31 C
464 30-11-2021 14:35:00 6.2 C 94 % 5.31 C
465 30-11-2021 14:40:00 6.2 C 94 % 5.31 C
466 30-11-2021 14:45:00 6.2 C 94 % 5.31 C
467 30-11-2021 14:50:00 6.2 C 94 % 5.31 C
468 30-11-2021 14:55:00 6.2 C 94 % 5.31 C
469 30-11-2021 15:00:00 6.2 C 94 % 5.31 C
470 30-11-2021 15:05:00 6.3 C 94 % 5.41 C
471 30-11-2021 15:10:00 6.3 C 94 % 5.41 C
472 30-11-2021 15:15:00 6.3 C 94 % 5.41 C
473 30-11-2021 15:20:00 6.3 C 94 % 5.41 C
474 30-11-2021 15:25:00 6.3 C 94 % 5.41 C
475 30-11-2021 15:30:00 6.3 C 94 % 5.41 C
Sensor: Nr:Datum:Temp:Feuchte:Taupunkt:
Aussen-T/F 476 30-11-2021 15:35:00 6.3 C 94 % 5.41 C
477 30-11-2021 15:40:00 6.3 C 94 % 5.41 C
478 30-11-2021 15:45:00 6.3 C 94 % 5.41 C
479 30-11-2021 15:50:00 6.3 C 94 % 5.41 C
480 30-11-2021 15:55:00 6.3 C 94 % 5.41 C
481 30-11-2021 16:00:00 6.3 C 95 % 5.56 C
482 30-11-2021 16:05:00 6.3 C 95 % 5.56 C
483 30-11-2021 16:10:00 6.2 C 95 % 5.46 C
484 30-11-2021 16:15:00 6.3 C 95 % 5.56 C
485 30-11-2021 16:20:00 6.3 C 95 % 5.56 C
486 30-11-2021 16:25:00 6.3 C 95 % 5.56 C
487 30-11-2021 16:30:00 6.3 C 95 % 5.56 C
488 30-11-2021 16:35:00 6.3 C 94 % 5.41 C
489 30-11-2021 16:40:00 6.3 C 94 % 5.41 C
490 30-11-2021 16:45:00 6.3 C 95 % 5.56 C
491 30-11-2021 16:50:00 6.3 C 95 % 5.56 C
492 30-11-2021 16:55:00 6.3 C 95 % 5.56 C
493 30-11-2021 17:00:00 6.3 C 95 % 5.56 C
494 30-11-2021 17:05:00 6.4 C 95 % 5.66 C
495 30-11-2021 17:10:00 6.4 C 95 % 5.66 C
496 30-11-2021 17:15:00 6.4 C 95 % 5.66 C
497 30-11-2021 17:20:00 6.4 C 94 % 5.51 C
498 30-11-2021 17:25:00 6.4 C 95 % 5.66 C
499 30-11-2021 17:30:00 6.5 C 94 % 5.61 C
500 30-11-2021 17:35:00 6.4 C 95 % 5.66 C
Sensor: Nr:Datum:Temp:Feuchte:Taupunkt:
Aussen-T/F 501 30-11-2021 17:40:00 6.5 C 95 % 5.76 C
502 30-11-2021 17:45:00 6.5 C 95 % 5.76 C
503 30-11-2021 17:50:00 6.5 C 95 % 5.76 C
504 30-11-2021 17:55:00 6.6 C 94 % 5.71 C
505 30-11-2021 18:00:00 6.6 C 94 % 5.71 C
506 30-11-2021 18:05:00 6.6 C 94 % 5.71 C
507 30-11-2021 18:10:00 6.6 C 95 % 5.86 C
508 30-11-2021 18:15:00 6.6 C 95 % 5.86 C
509 30-11-2021 18:20:00 6.6 C 95 % 5.86 C
510 30-11-2021 18:25:00 6.6 C 95 % 5.86 C
511 30-11-2021 18:30:00 6.6 C 95 % 5.86 C
512 30-11-2021 18:35:00 6.7 C 95 % 5.96 C
513 30-11-2021 18:40:00 6.7 C 94 % 5.8 C
514 30-11-2021 18:45:00 6.7 C 95 % 5.96 C
515 30-11-2021 18:50:00 6.7 C 95 % 5.96 C
516 30-11-2021 18:55:00 6.7 C 95 % 5.96 C
517 30-11-2021 19:00:00 6.7 C 95 % 5.96 C
518 30-11-2021 19:05:00 6.7 C 95 % 5.96 C
519 30-11-2021 19:10:00 6.8 C 95 % 6.06 C
520 30-11-2021 19:15:00 6.8 C 95 % 6.06 C
521 30-11-2021 19:20:00 6.8 C 95 % 6.06 C
522 30-11-2021 19:25:00 6.8 C 95 % 6.06 C
523 30-11-2021 19:30:00 6.8 C 95 % 6.06 C
524 30-11-2021 19:35:00 6.9 C 95 % 6.16 C
525 30-11-2021 19:40:00 6.9 C 95 % 6.16 C
Sensor: Nr:Datum:Temp:Feuchte:Taupunkt:
Aussen-T/F 526 30-11-2021 19:45:00 6.9 C 94 % 6 C
527 30-11-2021 19:50:00 7 C 94 % 6.1 C
528 30-11-2021 19:55:00 7 C 94 % 6.1 C
529 30-11-2021 20:00:00 7 C 94 % 6.1 C
530 30-11-2021 20:05:00 7 C 94 % 6.1 C
531 30-11-2021 20:10:00 7.1 C 94 % 6.2 C
532 30-11-2021 20:15:00 7.1 C 94 % 6.2 C
533 30-11-2021 20:20:00 7.1 C 94 % 6.2 C
534 30-11-2021 20:25:00 7.1 C 94 % 6.2 C
535 30-11-2021 20:30:00 7.2 C 94 % 6.3 C
536 30-11-2021 20:35:00 7.2 C 94 % 6.3 C
537 30-11-2021 20:40:00 7.2 C 94 % 6.3 C
538 30-11-2021 20:45:00 7.2 C 93 % 6.15 C
539 30-11-2021 20:50:00 7.3 C 93 % 6.25 C
540 30-11-2021 20:55:00 7.3 C 93 % 6.25 C
541 30-11-2021 21:00:00 7.3 C 93 % 6.25 C
542 30-11-2021 21:05:00 7.3 C 93 % 6.25 C
543 30-11-2021 21:10:00 7.3 C 93 % 6.25 C
544 30-11-2021 21:15:00 7.3 C 93 % 6.25 C
545 30-11-2021 21:20:00 7.4 C 93 % 6.34 C
546 30-11-2021 21:25:00 7.4 C 93 % 6.34 C
547 30-11-2021 21:30:00 7.4 C 93 % 6.34 C
548 30-11-2021 21:35:00 7.4 C 93 % 6.34 C
549 30-11-2021 21:40:00 7.5 C 92 % 6.29 C
550 30-11-2021 21:45:00 7.5 C 92 % 6.29 C
Sensor: Nr:Datum:Temp:Feuchte:Taupunkt:
Aussen-T/F 551 30-11-2021 21:50:00 7.6 C 92 % 6.39 C
552 30-11-2021 21:55:00 7.6 C 92 % 6.39 C

Legende:
   Min
   Max


Maximal/Minimal-Werte vom 29.11.2021 - 30.11.2021

Sensor Min Max Avg
Temp
(Aussen-T/F)
0.3 °C
29-11-2021  05:15:00
7.6 °C
30-11-2021  21:50:00
3.76 °C
Feuchte
(Aussen-T/F)
85 %
29-11-2021  12:30:00
96 %
29-11-2021  00:00:00
92.96 %
Taupunkt
(Aussen-T/F)
-0.31 C
29-11-2021  05:05:00
6.39 C
30-11-2021  21:50:00
2.72 C

Die Daten stammen von einer Davis Vantage Pro 2 Wetter-Station und werden unter Linux mit der Software wview2wettercgi und aufbereitet. Alle Angaben erfolgen ohne Gewähr für ihre Vollständigkeit oder Richtigkeit.
Kontakt: Rainer Krienke krienke@uni-koblenz.de . Meine Webseiten an der Uni Koblenz oder privat.
Version: $Revision: 0.78 $